Time;durP1;ratioP1;P1;durP2;ratioP2;P2;SDS_P1;SDS_P2;PMS_P1;PMS_P2;Temp;Humidity;BMP_temperature;BMP_pressure;BME280_temperature;BME280_humidity;BME280_pressure;Samples;Min_cycle;Max_cycle;Signal;HPM_P1;HPM_P2
2022/06/10 00:01:18;;;;;;;;;7.25;5.50;;;;;20.06;47.21;101533.09;5110362;27;45733;-57
2022/06/10 00:03:43;;;;;;;;;11.00;7.00;;;;;20.06;47.30;101537.53;5114541;27;45458;-58
2022/06/10 00:06:11;;;;;;;;;6.75;6.00;;;;;20.04;47.48;101528.81;5115437;27;59417;-58
2022/06/10 00:08:39;;;;;;;;;8.00;6.00;;;;;20.02;47.53;101531.53;5104778;27;46141;-58
2022/06/10 00:11:06;;;;;;;;;8.50;6.00;;;;;20.01;47.48;101529.84;5112999;27;45932;-59
2022/06/10 00:13:33;;;;;;;;;9.00;5.50;;;;;20.00;47.74;101530.75;5114570;27;45458;-59
2022/06/10 00:16:00;;;;;;;;;10.00;5.00;;;;;20.01;47.67;101528.97;5112632;27;45364;-58
2022/06/10 00:18:28;;;;;;;;;7.25;5.00;;;;;20.00;47.52;101527.25;5110514;27;46161;-58
2022/06/10 00:20:54;;;;;;;;;6.50;5.00;;;;;20.00;48.07;101527.25;5111211;27;45469;-58
2022/06/10 00:23:19;;;;;;;;;5.75;5.50;;;;;19.99;47.71;101528.19;5109384;27;45563;-58
2022/06/10 00:25:45;;;;;;;;;7.00;6.00;;;;;19.97;48.08;101538.91;5107438;27;45463;-58
2022/06/10 00:28:11;;;;;;;;;11.50;5.75;;;;;19.98;47.78;101531.81;5110754;27;72432;-59
2022/06/10 00:30:36;;;;;;;;;6.00;4.25;;;;;19.97;48.21;101522.94;5090349;27;45590;-59
2022/06/10 00:33:03;;;;;;;;;9.00;7.50;;;;;19.97;47.93;101525.59;5115083;27;45419;-58
2022/06/10 00:35:28;;;;;;;;;9.25;6.50;;;;;19.96;48.04;101517.75;5111216;27;45394;-58
2022/06/10 00:37:54;;;;;;;;;7.75;5.00;;;;;19.95;48.14;101526.66;5112167;27;47261;-59
2022/06/10 00:40:28;;;;;;;;;6.50;4.75;;;;;19.91;48.05;101525.94;5106146;27;45468;-59
2022/06/10 00:42:56;;;;;;;;;7.00;5.00;;;;;19.91;47.96;101525.94;5113577;27;45331;-58
2022/06/10 00:45:47;;;;;;;;;6.75;5.00;;;;;19.89;48.23;101520.72;5114848;27;45980;-58
2022/06/10 00:48:16;;;;;;;;;6.50;5.50;;;;;19.89;48.30;101517.22;5103209;27;46853;-59
2022/06/10 00:50:41;;;;;;;;;5.75;5.75;;;;;19.87;48.26;101517.28;5098224;27;45361;-57
2022/06/10 00:53:11;;;;;;;;;10.00;6.00;;;;;19.87;48.37;101519.94;5097763;27;45473;-58
2022/06/10 00:55:37;;;;;;;;;7.25;6.50;;;;;19.87;48.08;101513.78;5116328;27;45452;-58
2022/06/10 00:58:11;;;;;;;;;7.75;5.00;;;;;19.87;48.39;101506.66;5104225;27;45683;-59
2022/06/10 01:00:38;;;;;;;;;6.25;5.00;;;;;19.88;48.29;101510.16;5112567;27;47015;-58
2022/06/10 01:03:04;;;;;;;;;6.75;6.25;;;;;19.87;48.49;101498.69;5116780;27;45683;-59
2022/06/10 01:05:29;;;;;;;;;6.00;6.00;;;;;19.84;48.34;101498.84;5099425;27;45610;-58
2022/06/10 01:08:16;;;;;;;;;7.75;5.50;;;;;19.87;48.30;101505.81;5107257;27;74270;-59
2022/06/10 01:10:52;;;;;;;;;5.75;5.00;;;;;19.88;48.41;101510.16;5096794;27;46214;-58
2022/06/10 01:13:38;;;;;;;;;8.50;5.75;;;;;19.86;48.36;101507.59;5114056;27;45796;-58
2022/06/10 01:16:10;;;;;;;;;7.00;5.00;;;;;19.84;48.75;101500.66;5113609;27;45439;-58
2022/06/10 01:18:51;;;;;;;;;5.25;4.50;;;;;19.83;48.42;101504.25;5106246;27;46090;-58
2022/06/10 01:21:41;;;;;;;;;5.50;4.25;;;;;19.83;48.44;101504.25;5113797;27;45765;-58
2022/06/10 01:24:32;;;;;;;;;6.75;5.00;;;;;19.78;48.45;101507.16;5112574;27;45867;-58
2022/06/10 01:27:49;;;;;;;;;7.00;5.25;;;;;19.77;48.42;101507.25;5097676;27;45605;-58
2022/06/10 01:30:39;;;;;;;;;7.50;6.00;;;;;19.75;48.85;101509.13;5110697;27;47012;-58
2022/06/10 01:34:03;;;;;;;;;5.00;4.00;;;;;19.73;48.99;101503.88;5117232;27;45460;-58
2022/06/10 01:36:40;;;;;;;;;7.25;5.00;;;;;19.73;48.63;101503.88;5026860;27;45677;-59
2022/06/10 01:39:21;;;;;;;;;6.75;5.00;;;;;19.70;48.89;101507.53;5098667;27;45424;-58
2022/06/10 01:41:58;;;;;;;;;6.75;5.50;;;;;19.71;48.72;101503.09;5095336;27;46729;-58
2022/06/10 01:44:37;;;;;;;;;8.00;6.00;;;;;19.71;48.78;101509.25;5111644;27;45821;-57
2022/06/10 01:47:23;;;;;;;;;7.25;5.00;;;;;19.72;48.73;101503.00;5099541;27;45413;-57
2022/06/10 01:49:53;;;;;;;;;6.75;4.00;;;;;19.73;48.63;101511.84;5097744;27;45565;-58
2022/06/10 01:52:27;;;;;;;;;6.25;4.25;;;;;19.74;48.61;101510.91;5098173;27;46223;-58
2022/06/10 01:55:04;;;;;;;;;5.50;4.25;;;;;19.73;48.98;101515.38;5113433;27;45437;-58
2022/06/10 01:57:49;;;;;;;;;10.75;6.00;;;;;19.73;48.86;101511.84;5100900;27;45658;-58
2022/06/10 02:00:20;;;;;;;;;6.00;4.75;;;;;19.73;49.13;101507.41;5095226;27;45240;-57
2022/06/10 02:03:00;;;;;;;;;7.75;5.00;;;;;19.74;49.10;101510.91;5121034;27;46397;-58
2022/06/10 02:05:27;;;;;;;;;5.75;5.00;;;;;19.72;49.01;101507.44;5097352;27;45263;-57
2022/06/10 02:08:11;;;;;;;;;6.50;4.00;;;;;19.74;48.72;101510.91;5109860;27;45524;-57
2022/06/10 02:11:05;;;;;;;;;4.00;3.00;;;;;19.72;48.81;101510.97;5098123;27;45482;-58
2022/06/10 02:13:41;;;;;;;;;6.25;4.75;;;;;19.69;48.80;101510.28;5108059;27;46480;-57
2022/06/10 02:16:11;;;;;;;;;5.50;4.00;;;;;19.71;49.15;101514.56;5094632;27;45434;-57
2022/06/10 02:19:19;;;;;;;;;5.75;5.00;;;;;19.72;49.25;101516.28;5103336;27;45263;-57
2022/06/10 02:21:57;;;;;;;;;6.50;3.75;;;;;19.72;48.98;101512.75;5081614;27;45369;-59
2022/06/10 02:24:57;;;;;;;;;4.00;3.00;;;;;19.69;48.85;101513.78;5099929;27;45355;-58
2022/06/10 02:27:32;;;;;;;;;5.50;4.00;;;;;19.70;48.93;101510.19;5054708;27;45443;-58
2022/06/10 02:30:21;;;;;;;;;4.50;3.50;;;;;19.69;48.87;101508.47;5111716;27;46656;-58
2022/06/10 02:32:47;;;;;;;;;8.00;5.50;;;;;19.69;48.94;101504.97;5099685;27;45474;-57
2022/06/10 02:35:13;;;;;;;;;4.50;4.50;;;;;19.66;48.92;101505.97;5110015;27;72634;-59
2022/06/10 02:37:50;;;;;;;;;6.00;4.00;;;;;19.65;49.02;101509.56;5101045;27;45841;-57
2022/06/10 02:40:32;;;;;;;;;10.50;4.00;;;;;19.65;49.07;101521.97;5107716;27;45323;-57
2022/06/10 02:43:16;;;;;;;;;6.00;5.00;;;;;19.64;49.30;101520.28;5111020;27;45280;-58
2022/06/10 02:46:04;;;;;;;;;6.50;5.25;;;;;19.61;49.34;101518.63;5100572;27;45542;-57
2022/06/10 02:48:52;;;;;;;;;9.00;5.75;;;;;19.57;49.07;101522.41;5094322;27;45415;-58
2022/06/10 02:51:19;;;;;;;;;6.00;5.00;;;;;19.57;49.23;101521.56;5110573;27;45278;-57
2022/06/10 02:53:45;;;;;;;;;7.75;5.50;;;;;19.53;49.16;101521.69;5115884;27;45405;-57
2022/06/10 02:56:22;;;;;;;;;6.75;4.00;;;;;19.49;49.41;101533.41;5090962;27;45344;-58
2022/06/10 03:01:43;;;;;;;;;7.00;5.50;;;;;19.42;49.59;101536.47;5094845;27;45428;-57
2022/06/10 03:04:17;;;;;;;;;4.25;4.25;;;;;19.39;49.44;101529.53;5115480;27;45633;-58
2022/06/10 03:06:49;;;;;;;;;8.75;5.00;;;;;19.39;49.59;101534.84;5112500;27;46283;-58
2022/06/10 03:09:41;;;;;;;;;5.00;4.75;;;;;19.37;49.86;101533.19;5106249;27;45540;-57
2022/06/10 03:12:46;;;;;;;;;5.00;5.00;;;;;19.33;49.60;101535.13;5109262;27;45462;-58
2022/06/10 03:15:39;;;;;;;;;6.25;5.25;;;;;19.30;49.68;101533.50;5051759;27;45549;-59
2022/06/10 03:18:42;;;;;;;;;5.25;4.00;;;;;19.28;49.53;101538.03;5105745;27;46553;-58
2022/06/10 03:21:29;;;;;;;;;3.50;1.00;;;;;19.26;49.77;101531.06;5115930;27;45824;-58
2022/06/10 03:24:11;;;;;;;;;6.00;5.00;;;;;19.23;49.61;101534.75;5107492;27;45405;-58
2022/06/10 03:26:36;;;;;;;;;4.50;3.00;;;;;19.23;49.54;101539.19;5085368;27;45529;-59
2022/06/10 03:29:12;;;;;;;;;8.67;6.00;;;;;19.19;49.70;101538.47;5114502;27;46009;-59
2022/06/10 03:31:44;;;;;;;;;5.25;4.00;;;;;19.14;49.90;101530.78;5095868;27;45861;-58
2022/06/10 03:34:18;;;;;;;;;3.00;3.00;;;;;19.11;49.67;101546.84;5114530;27;45897;-58
2022/06/10 03:36:46;;;;;;;;;4.25;3.00;;;;;19.08;49.98;101541.69;5100237;27;45640;-58
2022/06/10 03:39:12;;;;;;;;;5.00;3.75;;;;;19.04;49.92;101547.22;5091821;27;46147;-59
2022/06/10 03:41:41;;;;;;;;;3.25;3.25;;;;;19.02;50.16;101543.78;5112299;27;70790;-58
2022/06/10 03:44:13;;;;;;;;;5.50;3.00;;;;;18.98;50.10;101537.75;5105711;27;45214;-58
2022/06/10 03:46:39;;;;;;;;;7.00;3.25;;;;;18.98;50.31;101543.06;5090218;27;45320;-58
2022/06/10 03:49:12;;;;;;;;;4.25;2.00;;;;;18.93;50.31;101539.81;5095968;27;45382;-58
2022/06/10 03:51:38;;;;;;;;;4.50;3.50;;;;;18.90;50.31;101545.25;5091824;27;45419;-58
2022/06/10 03:54:03;;;;;;;;;3.00;2.50;;;;;18.89;50.77;101540.88;5115906;27;45413;-58
2022/06/10 03:56:31;;;;;;;;;9.50;5.00;;;;;18.86;50.37;101547.19;5110524;27;45862;-59
2022/06/10 03:58:56;;;;;;;;;7.00;4.00;;;;;18.82;50.72;101547.41;5114561;27;46182;-59
2022/06/10 04:01:21;;;;;;;;;4.75;4.00;;;;;18.75;50.72;101542.38;5110466;27;45484;-58
2022/06/10 04:03:47;;;;;;;;;6.00;4.00;;;;;18.72;50.98;101544.31;5117575;27;45413;-58
2022/06/10 04:06:13;;;;;;;;;5.00;3.00;;;;;18.70;51.02;101540.91;5112382;27;45476;-58
2022/06/10 04:08:38;;;;;;;;;5.50;4.50;;;;;18.68;51.22;101550.69;5109422;27;45549;-58
2022/06/10 04:11:04;;;;;;;;;7.00;4.50;;;;;18.70;51.26;101548.84;5101233;27;45476;-59
2022/06/10 04:13:29;;;;;;;;;7.75;4.00;;;;;18.69;51.33;101557.72;5110822;27;65706;-58
2022/06/10 04:15:54;;;;;;;;;7.50;4.25;;;;;18.69;51.47;101555.06;5116033;27;71474;-58
2022/06/10 04:18:20;;;;;;;;;7.25;5.00;;;;;18.68;51.28;101556.00;5087469;27;61688;-58
2022/06/10 04:20:45;;;;;;;;;5.75;4.50;;;;;18.67;51.48;101560.44;5107446;27;45485;-58
2022/06/10 04:23:13;;;;;;;;;6.25;4.50;;;;;18.70;51.55;101562.09;5109291;27;65665;-58
2022/06/10 04:25:39;;;;;;;;;8.50;4.25;;;;;18.69;51.59;101553.28;5111960;27;45459;-58
2022/06/10 04:28:05;;;;;;;;;9.50;4.50;;;;;18.73;51.68;101557.50;5111194;27;63051;-58
2022/06/10 04:30:32;;;;;;;;;5.00;4.25;;;;;18.75;51.49;101560.06;5091147;27;45465;-58
2022/06/10 04:32:59;;;;;;;;;8.00;6.00;;;;;18.77;51.63;101564.38;5114301;27;45399;-58
2022/06/10 04:35:26;;;;;;;;;6.00;4.00;;;;;18.79;51.37;101562.50;5112603;27;45282;-58
2022/06/10 04:37:52;;;;;;;;;4.75;4.00;;;;;18.81;51.77;101565.09;5110610;27;46420;-58
2022/06/10 04:40:19;;;;;;;;;4.00;4.00;;;;;18.87;51.57;101572.75;5114449;27;45358;-58
2022/06/10 04:42:45;;;;;;;;;6.50;4.75;;;;;18.88;51.52;101568.34;5116499;27;45329;-58
2022/06/10 04:45:11;;;;;;;;;8.00;5.25;;;;;18.92;51.37;101572.56;5106414;27;45466;-58
2022/06/10 04:47:36;;;;;;;;;4.25;4.00;;;;;18.91;51.65;101577.00;5107006;27;45665;-58
2022/06/10 04:50:03;;;;;;;;;8.25;7.00;;;;;18.93;51.78;101572.47;5110235;27;45974;-58
2022/06/10 04:52:29;;;;;;;;;11.25;6.00;;;;;18.95;51.86;101564.44;5107996;27;45283;-58
2022/06/10 04:54:54;;;;;;;;;5.25;3.25;;;;;18.96;51.59;101572.34;5112376;27;45303;-58
2022/06/10 04:57:20;;;;;;;;;10.50;4.75;;;;;18.95;51.76;101567.97;5092603;27;55940;-58
2022/06/10 04:59:46;;;;;;;;;5.25;4.50;;;;;18.95;52.00;101567.97;5109339;27;45524;-58
2022/06/10 05:02:11;;;;;;;;;6.00;6.00;;;;;18.99;51.87;101568.66;5109742;27;45469;-58
2022/06/10 05:04:36;;;;;;;;;8.50;7.00;;;;;19.01;51.62;101565.94;5104459;27;68960;-58
2022/06/10 05:07:02;;;;;;;;;4.50;4.50;;;;;19.01;51.81;101565.94;5112888;27;74627;-58
2022/06/10 05:09:27;;;;;;;;;7.00;5.00;;;;;19.03;51.75;101572.88;5111337;27;45328;-58
2022/06/10 05:11:52;;;;;;;;;5.75;5.00;;;;;19.05;51.60;101572.81;5108920;27;67649;-58
2022/06/10 05:14:18;;;;;;;;;4.25;4.25;;;;;19.09;51.72;101571.75;5107327;27;67020;-58
2022/06/10 05:16:44;;;;;;;;;5.00;2.50;;;;;19.14;51.92;101567.91;5111475;27;46008;-58
2022/06/10 05:19:09;;;;;;;;;7.25;5.00;;;;;19.19;51.54;101570.31;5112352;27;45502;-58
2022/06/10 05:21:35;;;;;;;;;7.75;4.00;;;;;19.21;51.37;101567.59;5109292;27;46801;-58
2022/06/10 05:24:00;;;;;;;;;5.75;4.00;;;;;19.29;51.56;101562.78;5109611;27;45335;-58
2022/06/10 05:26:29;;;;;;;;;5.75;4.25;;;;;19.31;51.44;101568.84;5110918;27;74393;-58
2022/06/10 05:28:54;;;;;;;;;7.50;4.00;;;;;19.34;51.54;101571.38;5111974;27;45414;-58
2022/06/10 05:31:19;;;;;;;;;6.00;4.75;;;;;19.38;51.44;101569.41;5108920;27;45461;-59
2022/06/10 05:36:29;;;;;;;;;5.00;5.00;;;;;19.45;51.41;101573.47;5106646;27;45929;-58
2022/06/10 05:38:55;;;;;;;;;5.00;4.00;;;;;19.51;51.24;101582.00;5108161;27;56672;-58
2022/06/10 05:44:05;;;;;;;;;4.50;4.00;;;;;19.52;51.22;101577.53;5108652;27;45202;-58
2022/06/10 05:46:30;;;;;;;;;5.50;3.50;;;;;19.51;51.37;101578.47;5105667;27;47131;-58
2022/06/10 05:48:55;;;;;;;;;4.00;3.00;;;;;19.56;51.50;101576.44;5114594;27;45369;-58
2022/06/10 05:51:21;;;;;;;;;7.25;5.00;;;;;19.60;51.23;101585.97;5094973;27;69238;-58
2022/06/10 05:53:46;;;;;;;;;26.75;22.00;;;;;19.64;51.53;101595.50;5117103;27;45210;-58
2022/06/10 05:56:11;;;;;;;;;5.50;5.25;;;;;19.68;51.36;101588.22;5105728;27;45506;-57
2022/06/10 05:58:37;;;;;;;;;10.00;4.25;;;;;19.72;51.21;101600.41;5103858;27;45335;-58
2022/06/10 06:01:02;;;;;;;;;5.50;3.00;;;;;19.76;51.04;101598.47;5089942;27;66520;-57
2022/06/10 06:03:27;;;;;;;;;4.75;4.00;;;;;19.78;51.22;101602.78;5103180;27;69070;-57
2022/06/10 06:05:53;;;;;;;;;5.00;4.25;;;;;19.86;51.12;101605.03;5120564;27;71813;-57
2022/06/10 06:08:18;;;;;;;;;5.00;3.25;;;;;19.89;51.45;101612.84;5110516;27;73177;-57
2022/06/10 06:10:43;;;;;;;;;5.00;3.00;;;;;19.91;50.92;101613.63;5104339;27;62297;-57
2022/06/10 06:13:10;;;;;;;;;8.00;3.25;;;;;19.89;50.89;101618.16;5106595;27;71794;-57
2022/06/10 06:15:36;;;;;;;;;2.00;2.00;;;;;19.90;50.81;101620.75;5105591;27;46267;-61
2022/06/10 06:18:01;;;;;;;;;3.50;3.00;;;;;19.92;51.02;101621.50;5112786;27;45487;-61
2022/06/10 06:20:26;;;;;;;;;6.00;3.00;;;;;19.95;50.89;101616.97;5105870;27;66171;-59
2022/06/10 06:22:53;;;;;;;;;8.50;2.75;;;;;19.99;50.82;101616.75;5113604;27;45381;-59
2022/06/10 06:25:19;;;;;;;;;3.25;2.75;;;;;19.99;50.85;101619.41;5111513;27;46172;-58
2022/06/10 06:27:45;;;;;;;;;2.00;2.00;;;;;20.01;50.71;101624.59;5104919;27;47090;-58
2022/06/10 06:30:26;;;;;;;;;3.00;3.00;;;;;20.03;50.90;101618.28;5101612;27;45564;-58
2022/06/10 06:32:52;;;;;;;;;2.00;2.00;;;;;20.02;50.70;101618.38;5116445;27;45284;-58
2022/06/10 06:35:17;;;;;;;;;6.00;3.00;;;;;20.03;50.92;101614.78;5112336;27;45383;-58
2022/06/10 06:37:42;;;;;;;;;2.00;2.00;;;;;20.01;50.96;101612.22;5115641;27;45372;-58
2022/06/10 06:40:10;;;;;;;;;3.75;2.50;;;;;20.06;50.68;101626.13;5086738;27;64748;-58
2022/06/10 06:42:36;;;;;;;;;3.50;2.25;;;;;20.09;50.89;101627.72;5086267;27;45500;-58
2022/06/10 06:45:02;;;;;;;;;4.50;3.75;;;;;20.14;51.26;101622.19;5111904;27;46904;-57
2022/06/10 06:47:27;;;;;;;;;4.00;2.25;;;;;20.21;50.64;101628.91;5112648;27;45465;-58
2022/06/10 06:49:53;;;;;;;;;4.75;2.00;;;;;20.24;50.77;101624.28;5114036;27;69227;-58
2022/06/10 06:52:18;;;;;;;;;4.00;3.00;;;;;20.30;50.56;101629.25;5090284;27;68738;-58
2022/06/10 06:54:43;;;;;;;;;5.25;2.00;;;;;20.36;50.63;101624.53;5103588;27;47025;-58
2022/06/10 06:57:09;;;;;;;;;3.50;1.75;;;;;20.39;50.19;101621.72;5113049;27;64401;-58
2022/06/10 06:59:34;;;;;;;;;4.00;4.00;;;;;20.42;50.49;101618.91;5105829;27;66619;-58
2022/06/10 07:02:00;;;;;;;;;2.75;2.00;;;;;20.46;49.96;101625.75;5108762;27;45498;-58
2022/06/10 07:04:25;;;;;;;;;4.00;3.50;;;;;20.50;50.35;101624.66;5110371;27;72976;-58
2022/06/10 07:06:51;;;;;;;;;3.00;3.00;;;;;20.57;50.21;101626.03;5105824;27;45584;-58
2022/06/10 07:09:16;;;;;;;;;3.00;2.25;;;;;20.62;50.11;101620.50;5101470;27;45560;-57
2022/06/10 07:11:41;;;;;;;;;4.00;2.00;;;;;20.67;49.89;101624.63;5100146;27;68090;-57
2022/06/10 07:14:07;;;;;;;;;3.25;1.50;;;;;20.74;49.51;101629.59;5113885;27;45378;-57
2022/06/10 07:16:33;;;;;;;;;2.25;2.00;;;;;20.76;49.10;101625.06;5095277;27;45528;-57
2022/06/10 07:18:58;;;;;;;;;2.50;2.50;;;;;20.81;49.44;101623.84;5116823;27;45543;-57
2022/06/10 07:21:23;;;;;;;;;3.75;2.00;;;;;20.85;48.78;101620.06;5106369;27;45468;-57
2022/06/10 07:23:49;;;;;;;;;1.75;1.75;;;;;20.93;49.08;101622.31;5106451;27;75455;-56
2022/06/10 07:26:15;;;;;;;;;2.00;2.00;;;;;20.98;48.61;101622.91;5106932;27;45312;-57
2022/06/10 07:28:41;;;;;;;;;7.25;3.00;;;;;21.02;48.83;101611.13;5108582;27;45662;-57
2022/06/10 07:31:06;;;;;;;;;2.00;2.00;;;;;21.12;47.87;101613.25;5102040;27;45560;-57
2022/06/10 07:33:34;;;;;;;;;4.50;3.00;;;;;21.19;48.20;101627.94;5104376;27;46037;-57
2022/06/10 07:35:59;;;;;;;;;3.75;2.00;;;;;21.23;47.94;101626.84;5104498;27;45781;-57
2022/06/10 07:38:25;;;;;;;;;6.00;3.00;;;;;21.30;48.10;101629.97;5107589;27;45340;-57
2022/06/10 07:43:35;;;;;;;;;5.00;2.00;;;;;21.49;47.98;101637.78;5104087;27;45736;-57
2022/06/10 07:46:01;;;;;;;;;4.75;3.00;;;;;21.63;46.79;101640.50;5106208;27;45402;-56
2022/06/10 07:48:27;;;;;;;;;4.00;2.00;;;;;21.78;47.32;101646.75;5106029;27;45340;-57
2022/06/10 07:50:52;;;;;;;;;5.00;2.75;;;;;21.92;46.96;101638.75;5111770;27;57589;-56
2022/06/10 07:53:18;;;;;;;;;3.25;3.00;;;;;22.07;46.80;101638.78;5104548;27;71896;-57
2022/06/10 07:55:44;;;;;;;;;6.00;3.00;;;;;22.19;46.70;101633.53;5106358;27;45827;-57
2022/06/10 07:58:10;;;;;;;;;2.00;1.75;;;;;22.28;46.42;101637.47;5113239;27;45299;-56
2022/06/10 08:00:36;;;;;;;;;2.50;1.50;;;;;22.35;45.72;101627.31;5110803;27;45454;-56
2022/06/10 08:03:02;;;;;;;;;2.00;1.00;;;;;22.38;45.19;101635.09;5110685;27;46343;-56
2022/06/10 08:05:28;;;;;;;;;1.75;1.75;;;;;22.32;45.55;101632.81;5109143;27;45302;-55
2022/06/10 08:07:54;;;;;;;;;2.75;2.00;;;;;22.26;45.31;101636.69;5113938;27;45307;-55
2022/06/10 08:10:23;;;;;;;;;2.50;1.00;;;;;22.22;45.68;101626.31;5107417;27;45436;-56
2022/06/10 08:12:48;;;;;;;;;1.75;1.25;;;;;22.19;45.49;101633.53;5105069;27;47279;-56
2022/06/10 08:15:16;;;;;;;;;3.00;2.00;;;;;22.19;45.63;101630.88;5112301;27;70453;-58
2022/06/10 08:17:41;;;;;;;;;2.75;2.00;;;;;22.24;45.28;101629.72;5107987;27;45239;-58
2022/06/10 08:20:08;;;;;;;;;3.00;1.00;;;;;22.29;45.07;101625.88;5117174;27;45683;-58
2022/06/10 08:22:34;;;;;;;;;2.00;0.50;;;;;22.37;45.55;101620.91;5110653;27;46206;-58
2022/06/10 08:25:00;;;;;;;;;2.25;2.00;;;;;22.48;44.79;101630.91;5099812;27;45335;-58
2022/06/10 08:27:27;;;;;;;;;3.00;0.50;;;;;22.50;44.92;101623.66;5105640;27;45512;-57
2022/06/10 08:29:53;;;;;;;;;3.50;2.00;;;;;22.55;45.11;101632.22;5100890;27;45321;-56
2022/06/10 08:32:19;;;;;;;;;4.50;2.75;;;;;22.59;44.94;101624.88;5102460;27;45493;-56
2022/06/10 08:34:44;;;;;;;;;3.00;1.25;;;;;22.68;44.88;101613.63;5112773;27;45479;-56
2022/06/10 08:37:10;;;;;;;;;1.25;1.25;;;;;22.78;44.21;101613.03;5114173;27;65314;-56
2022/06/10 08:39:36;;;;;;;;;4.00;2.25;;;;;22.90;44.66;101613.09;5104727;27;46587;-58
2022/06/10 08:42:49;;;;;;;;;3.25;1.25;;;;;23.02;44.76;101607.91;5114938;27;45340;-56
2022/06/10 08:45:26;;;;;;;;;3.00;3.00;;;;;23.20;44.01;101609.41;4988026;28;45467;-56
2022/06/10 08:48:05;;;;;;;;;1.00;1.00;;;;;23.38;43.21;101615.31;5096270;27;45507;-55
2022/06/10 08:50:49;;;;;;;;;2.00;2.00;;;;;23.50;43.12;101610.97;5099080;27;45493;-56
2022/06/10 08:53:54;;;;;;;;;4.50;3.25;;;;;23.58;42.70;101607.78;5112283;27;46362;-56
2022/06/10 08:56:40;;;;;;;;;2.00;1.75;;;;;23.65;41.95;101609.91;5113680;27;45912;-57
2022/06/10 08:59:08;;;;;;;;;4.00;2.50;;;;;23.70;42.00;101613.13;5108451;27;45428;-56
2022/06/10 09:01:55;;;;;;;;;3.75;2.00;;;;;23.77;41.35;101610.91;5112654;27;45302;-57
2022/06/10 09:04:36;;;;;;;;;2.25;2.25;;;;;23.84;41.58;101611.38;5116511;27;46037;-57
2022/06/10 09:07:08;;;;;;;;;1.50;1.00;;;;;23.85;41.34;101615.72;5097982;27;45573;-58
2022/06/10 09:09:34;;;;;;;;;1.00;1.00;;;;;23.91;41.37;101615.31;5103451;27;45358;-57
2022/06/10 09:12:05;;;;;;;;;1.25;1.25;;;;;23.94;41.01;101606.22;5104767;27;45660;-58
2022/06/10 09:14:31;;;;;;;;;4.25;3.00;;;;;23.98;41.11;101605.91;5099621;27;45425;-58
2022/06/10 09:17:15;;;;;;;;;2.00;2.00;;;;;24.10;41.08;101603.31;5115101;27;57497;-58
2022/06/10 09:19:40;;;;;;;;;2.75;1.00;;;;;24.22;41.16;101611.38;5107207;27;45567;-57
2022/06/10 09:22:17;;;;;;;;;4.00;2.67;;;;;24.39;41.02;101603.94;5118632;27;45587;-56
2022/06/10 09:24:54;;;;;;;;;3.50;2.00;;;;;24.54;40.60;101613.59;5113561;27;45423;-57
2022/06/10 09:27:28;;;;;;;;;6.50;4.00;;;;;24.72;40.89;101603.38;5111755;27;45670;-57
2022/06/10 09:29:57;;;;;;;;;3.00;1.00;;;;;24.85;40.18;101607.81;5117969;27;45312;-57
2022/06/10 09:32:34;;;;;;;;;4.50;2.00;;;;;24.95;40.08;101606.19;5113935;27;45503;-57
2022/06/10 09:35:10;;;;;;;;;3.00;1.25;;;;;25.11;39.40;101606.75;5120778;27;45483;-57
2022/06/10 09:38:12;;;;;;;;;3.00;1.50;;;;;25.16;39.46;101603.69;5090636;27;45797;-57
2022/06/10 09:40:38;;;;;;;;;1.50;1.00;;;;;25.32;38.35;101608.78;5089285;27;45469;-57
2022/06/10 09:43:43;;;;;;;;;2.00;1.00;;;;;25.63;38.52;101609.13;5113184;27;45293;-57
2022/06/10 09:46:34;;;;;;;;;2.50;0.25;;;;;26.69;37.48;101606.16;5096282;27;45522;-57
2022/06/10 09:49:07;;;;;;;;;2.00;1.00;;;;;28.27;36.37;101610.75;5111552;27;45796;-57
2022/06/10 09:51:45;;;;;;;;;0.00;0.00;;;;;29.82;33.82;101613.75;5114626;27;45283;-57
2022/06/10 09:54:35;;;;;;;;;5.75;1.00;;;;;30.76;32.76;101619.06;5107304;27;45406;-58
2022/06/10 09:57:25;;;;;;;;;1.25;0.00;;;;;30.96;31.63;101617.09;5113550;27;45343;-57
2022/06/10 10:00:00;;;;;;;;;0.00;0.00;;;;;30.83;31.64;101614.72;5110617;27;45674;-57
2022/06/10 10:02:46;;;;;;;;;0.00;0.00;;;;;31.00;30.21;101615.75;5088968;27;45481;-58
2022/06/10 10:05:29;;;;;;;;;0.00;0.00;;;;;31.74;30.17;101618.25;5092561;27;45402;-58
2022/06/10 10:08:06;;;;;;;;;2.75;1.50;;;;;31.68;30.59;101614.34;5119084;27;46003;-58
2022/06/10 10:10:42;;;;;;;;;1.50;0.00;;;;;31.35;30.33;101621.31;5111305;27;45355;-58
2022/06/10 10:13:31;;;;;;;;;0.25;0.25;;;;;31.51;29.85;101626.06;5105826;27;45310;-58
2022/06/10 10:16:15;;;;;;;;;2.00;0.75;;;;;32.55;28.56;101615.13;5103157;27;45494;-58
2022/06/10 10:18:57;;;;;;;;;2.50;1.00;;;;;33.67;28.72;101618.34;5092799;27;45566;-58
2022/06/10 10:21:34;;;;;;;;;2.00;1.25;;;;;34.21;27.73;101623.16;5104624;27;45569;-58
2022/06/10 10:23:59;;;;;;;;;2.25;0.75;;;;;34.69;27.08;101617.66;5103518;27;45488;-58
2022/06/10 10:26:29;;;;;;;;;1.25;1.00;;;;;35.52;26.49;101616.03;5100843;27;45269;-58
2022/06/10 10:28:58;;;;;;;;;1.00;1.00;;;;;36.55;25.33;101613.50;5108652;27;46428;-58
2022/06/10 10:31:26;;;;;;;;;3.75;0.00;;;;;36.92;24.07;101611.63;5114101;27;45223;-58
2022/06/10 10:33:51;;;;;;;;;0.00;0.00;;;;;37.43;23.66;101611.47;5117588;27;45204;-58
2022/06/10 10:36:30;;;;;;;;;2.50;0.75;;;;;37.67;24.55;101617.53;5121844;27;45289;-58
2022/06/10 10:38:56;;;;;;;;;0.75;0.00;;;;;37.12;24.89;101610.97;5121609;27;45672;-58
2022/06/10 10:41:42;;;;;;;;;1.00;1.00;;;;;37.26;24.54;101601.88;5103797;27;45379;-58
2022/06/10 10:44:23;;;;;;;;;2.75;0.25;;;;;37.13;24.35;101608.00;5118747;27;45317;-58
2022/06/10 10:46:58;;;;;;;;;2.75;1.00;;;;;37.36;23.65;101610.56;5112876;27;45400;-58
2022/06/10 10:49:30;;;;;;;;;3.00;1.00;;;;;37.34;22.97;101609.91;5119465;27;45652;-58
2022/06/10 10:51:56;;;;;;;;;3.50;2.00;;;;;36.96;24.31;101607.47;5119661;27;45446;-57
2022/06/10 10:54:31;;;;;;;;;2.25;1.00;;;;;36.30;24.49;101607.53;5120184;27;45343;-58
2022/06/10 10:56:57;;;;;;;;;1.50;1.50;;;;;35.32;24.84;101612.13;5117887;27;45247;-58
2022/06/10 10:59:38;;;;;;;;;5.00;2.00;;;;;34.24;25.57;101609.19;5101780;27;46131;-58
2022/06/10 11:02:26;;;;;;;;;5.50;2.00;;;;;33.36;27.33;101603.75;5096249;27;45368;-57
2022/06/10 11:04:51;;;;;;;;;3.25;3.00;;;;;32.63;27.06;101606.19;5119971;27;45542;-58
2022/06/10 11:07:21;;;;;;;;;5.50;2.25;;;;;32.27;28.22;101603.69;5097155;27;45623;-58
2022/06/10 11:09:50;;;;;;;;;3.00;2.00;;;;;32.45;28.33;101609.00;5113004;27;45500;-59
2022/06/10 11:12:19;;;;;;;;;2.25;1.75;;;;;32.84;27.90;101611.16;5119537;27;45252;-59
2022/06/10 11:14:47;;;;;;;;;6.00;1.00;;;;;33.75;27.83;101609.34;5113188;27;45618;-58
2022/06/10 11:17:13;;;;;;;;;4.00;1.00;;;;;34.80;27.56;101608.25;5103235;27;45547;-58
2022/06/10 11:19:51;;;;;;;;;3.50;1.25;;;;;35.13;25.42;101608.00;5115118;27;46824;-58
2022/06/10 11:22:39;;;;;;;;;2.00;2.00;;;;;34.55;25.48;101616.53;5092552;27;45773;-58
2022/06/10 11:25:25;;;;;;;;;7.00;2.25;;;;;34.16;25.70;101617.38;5116973;27;45310;-58
2022/06/10 11:27:50;;;;;;;;;2.00;2.00;;;;;34.07;26.12;101621.13;5114878;27;45425;-58
2022/06/10 11:30:20;;;;;;;;;5.00;5.00;;;;;33.91;26.52;101615.72;5117341;27;45321;-58
2022/06/10 11:32:48;;;;;;;;;4.75;4.75;;;;;33.55;26.28;101614.25;5119588;27;45674;-58
2022/06/10 11:35:37;;;;;;;;;6.75;6.00;;;;;33.02;27.29;101607.44;5117487;27;45528;-58
2022/06/10 11:38:08;;;;;;;;;2.50;1.00;;;;;33.46;27.17;101607.97;5117210;27;45567;-58
2022/06/10 11:40:41;;;;;;;;;1.00;1.00;;;;;34.24;27.27;101609.19;5118147;27;45496;-58
2022/06/10 11:43:16;;;;;;;;;1.75;1.75;;;;;34.89;25.59;101603.63;5114188;27;45659;-58
2022/06/10 11:45:48;;;;;;;;;2.00;1.00;;;;;34.94;25.95;101603.91;5112515;27;45527;-58
2022/06/10 11:48:16;;;;;;;;;2.50;2.00;;;;;35.27;25.64;101604.50;5094351;27;45476;-58
2022/06/10 11:51:01;;;;;;;;;2.50;1.75;;;;;35.93;25.08;101599.28;5108148;27;46222;-59
2022/06/10 11:53:37;;;;;;;;;2.75;2.00;;;;;36.44;24.08;101600.34;5100778;27;45978;-59
2022/06/10 12:01:42;;;;;;;;;4.75;3.00;;;;;37.72;23.98;101592.38;5087058;27;45395;-58
2022/06/10 12:04:14;;;;;;;;;5.00;4.25;;;;;38.06;23.55;101591.50;5087373;27;45260;-59